sensor_id;sensor_type;location;lat;lon;timestamp;temperature;humidity
1786;DHT22;890;48.158;11.540;2022-08-19T00:00:12;20.50;99.90
1786;DHT22;890;48.158;11.540;2022-08-19T00:02:40;20.50;99.90
1786;DHT22;890;48.158;11.540;2022-08-19T00:05:07;20.50;99.90
1786;DHT22;890;48.158;11.540;2022-08-19T00:07:33;20.40;99.90
1786;DHT22;890;48.158;11.540;2022-08-19T00:09:59;20.50;99.90
1786;DHT22;890;48.158;11.540;2022-08-19T00:12:24;20.50;99.90
1786;DHT22;890;48.158;11.540;2022-08-19T00:14:50;20.50;99.90
1786;DHT22;890;48.158;11.540;2022-08-19T00:17:15;20.50;99.90
1786;DHT22;890;48.158;11.540;2022-08-19T00:19:41;20.60;99.90
1786;DHT22;890;48.158;11.540;2022-08-19T00:22:07;20.60;99.90
1786;DHT22;890;48.158;11.540;2022-08-19T00:24:34;20.60;99.90
1786;DHT22;890;48.158;11.540;2022-08-19T00:27:01;20.50;99.90
1786;DHT22;890;48.158;11.540;2022-08-19T00:29:27;20.40;99.90
1786;DHT22;890;48.158;11.540;2022-08-19T00:31:53;20.30;99.90
1786;DHT22;890;48.158;11.540;2022-08-19T00:34:20;20.20;99.90
1786;DHT22;890;48.158;11.540;2022-08-19T00:36:47;20.20;99.90
1786;DHT22;890;48.158;11.540;2022-08-19T00:39:13;20.20;99.90
1786;DHT22;890;48.158;11.540;2022-08-19T00:41:40;20.20;99.90
1786;DHT22;890;48.158;11.540;2022-08-19T00:44:15;20.20;99.90
1786;DHT22;890;48.158;11.540;2022-08-19T00:46:43;20.20;99.90
1786;DHT22;890;48.158;11.540;2022-08-19T00:49:16;20.20;99.90
1786;DHT22;890;48.158;11.540;2022-08-19T00:51:44;20.10;99.90
1786;DHT22;890;48.158;11.540;2022-08-19T00:54:11;20.10;99.90
1786;DHT22;890;48.158;11.540;2022-08-19T00:56:37;20.10;99.90
1786;DHT22;890;48.158;11.540;2022-08-19T00:59:04;20.10;99.90
1786;DHT22;890;48.158;11.540;2022-08-19T01:01:41;20.10;99.90
1786;DHT22;890;48.158;11.540;2022-08-19T01:04:07;20.10;99.90
1786;DHT22;890;48.158;11.540;2022-08-19T01:06:33;20.00;99.90
1786;DHT22;890;48.158;11.540;2022-08-19T01:09:00;20.10;99.90
1786;DHT22;890;48.158;11.540;2022-08-19T01:11:27;20.10;99.90
1786;DHT22;890;48.158;11.540;2022-08-19T01:13:53;20.10;99.90
1786;DHT22;890;48.158;11.540;2022-08-19T01:16:21;20.10;99.90
1786;DHT22;890;48.158;11.540;2022-08-19T01:18:48;20.00;99.90
1786;DHT22;890;48.158;11.540;2022-08-19T01:21:36;20.10;99.90
1786;DHT22;890;48.158;11.540;2022-08-19T01:24:04;19.90;99.90
1786;DHT22;890;48.158;11.540;2022-08-19T01:26:30;20.00;99.90
1786;DHT22;890;48.158;11.540;2022-08-19T01:28:58;20.10;99.90
1786;DHT22;890;48.158;11.540;2022-08-19T01:31:26;20.10;99.90
1786;DHT22;890;48.158;11.540;2022-08-19T01:33:55;20.10;99.90
1786;DHT22;890;48.158;11.540;2022-08-19T01:36:25;20.10;99.90
1786;DHT22;890;48.158;11.540;2022-08-19T01:38:51;20.00;99.90
1786;DHT22;890;48.158;11.540;2022-08-19T01:41:17;20.10;99.90
1786;DHT22;890;48.158;11.540;2022-08-19T01:43:44;20.10;99.90
1786;DHT22;890;48.158;11.540;2022-08-19T01:46:10;20.00;99.90
1786;DHT22;890;48.158;11.540;2022-08-19T01:48:38;20.00;99.90
1786;DHT22;890;48.158;11.540;2022-08-19T01:51:04;20.10;99.90
1786;DHT22;890;48.158;11.540;2022-08-19T01:53:30;20.10;99.90
1786;DHT22;890;48.158;11.540;2022-08-19T01:55:56;20.20;99.90
1786;DHT22;890;48.158;11.540;2022-08-19T01:58:26;20.40;99.90
1786;DHT22;890;48.158;11.540;2022-08-19T02:00:52;20.40;99.90
1786;DHT22;890;48.158;11.540;2022-08-19T02:03:17;20.40;99.90
1786;DHT22;890;48.158;11.540;2022-08-19T02:05:43;20.30;99.90
1786;DHT22;890;48.158;11.540;2022-08-19T02:08:10;20.20;99.90
1786;DHT22;890;48.158;11.540;2022-08-19T02:10:40;20.20;99.90
1786;DHT22;890;48.158;11.540;2022-08-19T02:13:06;20.10;99.90
1786;DHT22;890;48.158;11.540;2022-08-19T02:15:32;20.10;99.90
1786;DHT22;890;48.158;11.540;2022-08-19T02:17:57;20.20;99.90
1786;DHT22;890;48.158;11.540;2022-08-19T02:20:23;20.30;99.90
1786;DHT22;890;48.158;11.540;2022-08-19T02:22:49;20.20;99.90
1786;DHT22;890;48.158;11.540;2022-08-19T02:25:15;20.10;99.90
1786;DHT22;890;48.158;11.540;2022-08-19T02:27:41;20.20;99.90
1786;DHT22;890;48.158;11.540;2022-08-19T02:30:11;20.30;99.90
1786;DHT22;890;48.158;11.540;2022-08-19T02:32:37;20.40;99.90
1786;DHT22;890;48.158;11.540;2022-08-19T02:35:03;20.40;99.90
1786;DHT22;890;48.158;11.540;2022-08-19T02:37:29;20.40;99.90
1786;DHT22;890;48.158;11.540;2022-08-19T02:40:13;20.50;99.90
1786;DHT22;890;48.158;11.540;2022-08-19T02:42:39;20.40;99.90
1786;DHT22;890;48.158;11.540;2022-08-19T02:45:06;20.40;99.90
1786;DHT22;890;48.158;11.540;2022-08-19T02:47:33;20.30;99.90
1786;DHT22;890;48.158;11.540;2022-08-19T02:50:01;20.20;99.90
1786;DHT22;890;48.158;11.540;2022-08-19T02:52:27;20.10;99.90
1786;DHT22;890;48.158;11.540;2022-08-19T02:54:53;20.10;99.90
1786;DHT22;890;48.158;11.540;2022-08-19T02:57:20;20.10;99.90
1786;DHT22;890;48.158;11.540;2022-08-19T02:59:46;20.00;99.90
1786;DHT22;890;48.158;11.540;2022-08-19T03:02:12;20.00;99.90
1786;DHT22;890;48.158;11.540;2022-08-19T03:04:38;20.00;99.90
1786;DHT22;890;48.158;11.540;2022-08-19T03:07:03;20.00;99.90
1786;DHT22;890;48.158;11.540;2022-08-19T03:09:29;20.00;99.90
1786;DHT22;890;48.158;11.540;2022-08-19T03:11:55;20.00;99.90
1786;DHT22;890;48.158;11.540;2022-08-19T03:14:21;19.90;99.90
1786;DHT22;890;48.158;11.540;2022-08-19T03:16:49;19.80;99.90
1786;DHT22;890;48.158;11.540;2022-08-19T03:19:19;19.80;99.90
1786;DHT22;890;48.158;11.540;2022-08-19T03:21:46;19.70;99.90
1786;DHT22;890;48.158;11.540;2022-08-19T03:24:13;19.80;99.90
1786;DHT22;890;48.158;11.540;2022-08-19T03:26:45;19.80;99.90
1786;DHT22;890;48.158;11.540;2022-08-19T03:29:11;19.80;99.90
1786;DHT22;890;48.158;11.540;2022-08-19T03:31:39;20.00;99.90
1786;DHT22;890;48.158;11.540;2022-08-19T03:34:06;20.00;99.90
1786;DHT22;890;48.158;11.540;2022-08-19T03:36:32;20.10;99.90
1786;DHT22;890;48.158;11.540;2022-08-19T03:39:00;20.10;99.90
1786;DHT22;890;48.158;11.540;2022-08-19T03:41:35;20.10;99.90
1786;DHT22;890;48.158;11.540;2022-08-19T03:44:03;20.00;99.90
1786;DHT22;890;48.158;11.540;2022-08-19T03:46:31;20.10;99.90
1786;DHT22;890;48.158;11.540;2022-08-19T03:48:59;20.10;99.90
1786;DHT22;890;48.158;11.540;2022-08-19T03:51:34;20.10;99.90
1786;DHT22;890;48.158;11.540;2022-08-19T03:54:02;20.00;99.90
1786;DHT22;890;48.158;11.540;2022-08-19T03:56:28;20.10;99.90
1786;DHT22;890;48.158;11.540;2022-08-19T03:58:55;20.10;99.90
1786;DHT22;890;48.158;11.540;2022-08-19T04:01:24;20.20;99.90
1786;DHT22;890;48.158;11.540;2022-08-19T04:03:57;20.20;99.90
1786;DHT22;890;48.158;11.540;2022-08-19T04:06:28;20.10;99.90
1786;DHT22;890;48.158;11.540;2022-08-19T04:08:57;20.10;99.90
1786;DHT22;890;48.158;11.540;2022-08-19T04:11:26;20.10;99.90
1786;DHT22;890;48.158;11.540;2022-08-19T04:13:54;20.10;99.90
1786;DHT22;890;48.158;11.540;2022-08-19T04:16:22;20.10;99.90
1786;DHT22;890;48.158;11.540;2022-08-19T04:18:48;20.00;99.90
1786;DHT22;890;48.158;11.540;2022-08-19T04:21:19;20.00;99.90
1786;DHT22;890;48.158;11.540;2022-08-19T04:23:45;20.00;99.90
1786;DHT22;890;48.158;11.540;2022-08-19T04:26:14;20.00;99.90
1786;DHT22;890;48.158;11.540;2022-08-19T04:28:44;20.00;99.90
1786;DHT22;890;48.158;11.540;2022-08-19T04:31:19;20.00;99.90
1786;DHT22;890;48.158;11.540;2022-08-19T04:33:45;20.00;99.90
1786;DHT22;890;48.158;11.540;2022-08-19T04:36:20;20.00;99.90
1786;DHT22;890;48.158;11.540;2022-08-19T04:38:48;20.00;99.90
1786;DHT22;890;48.158;11.540;2022-08-19T04:41:14;20.10;99.90
1786;DHT22;890;48.158;11.540;2022-08-19T04:43:58;20.10;99.90
1786;DHT22;890;48.158;11.540;2022-08-19T04:46:23;20.10;99.90
1786;DHT22;890;48.158;11.540;2022-08-19T04:48:49;20.10;99.90
1786;DHT22;890;48.158;11.540;2022-08-19T04:51:15;20.10;99.90
1786;DHT22;890;48.158;11.540;2022-08-19T04:53:41;20.10;99.90
1786;DHT22;890;48.158;11.540;2022-08-19T04:56:11;20.30;99.90
1786;DHT22;890;48.158;11.540;2022-08-19T04:58:38;20.30;99.90
1786;DHT22;890;48.158;11.540;2022-08-19T05:01:05;20.30;99.90
1786;DHT22;890;48.158;11.540;2022-08-19T05:03:31;20.30;99.90
1786;DHT22;890;48.158;11.540;2022-08-19T05:06:04;20.30;99.90
1786;DHT22;890;48.158;11.540;2022-08-19T05:08:33;20.30;99.90
1786;DHT22;890;48.158;11.540;2022-08-19T05:10:59;20.40;99.90
1786;DHT22;890;48.158;11.540;2022-08-19T05:13:25;20.50;99.90
1786;DHT22;890;48.158;11.540;2022-08-19T05:15:58;20.50;99.90
1786;DHT22;890;48.158;11.540;2022-08-19T05:18:24;20.40;99.90
1786;DHT22;890;48.158;11.540;2022-08-19T05:21:15;20.50;99.90
1786;DHT22;890;48.158;11.540;2022-08-19T05:23:59;20.60;99.90
1786;DHT22;890;48.158;11.540;2022-08-19T05:26:25;20.60;99.90
1786;DHT22;890;48.158;11.540;2022-08-19T05:28:52;20.70;99.90
1786;DHT22;890;48.158;11.540;2022-08-19T05:31:18;20.70;99.90
1786;DHT22;890;48.158;11.540;2022-08-19T05:33:44;20.70;99.90
1786;DHT22;890;48.158;11.540;2022-08-19T05:36:09;20.70;99.90
1786;DHT22;890;48.158;11.540;2022-08-19T05:38:35;20.70;99.90
1786;DHT22;890;48.158;11.540;2022-08-19T05:41:08;20.60;99.90
1786;DHT22;890;48.158;11.540;2022-08-19T05:43:34;20.50;99.90
1786;DHT22;890;48.158;11.540;2022-08-19T05:46:00;20.60;99.90
1786;DHT22;890;48.158;11.540;2022-08-19T05:48:25;20.50;99.90
1786;DHT22;890;48.158;11.540;2022-08-19T05:50:52;20.50;99.90
1786;DHT22;890;48.158;11.540;2022-08-19T05:53:19;20.70;99.90
1786;DHT22;890;48.158;11.540;2022-08-19T05:55:45;20.80;99.90
1786;DHT22;890;48.158;11.540;2022-08-19T05:58:10;20.80;99.90
1786;DHT22;890;48.158;11.540;2022-08-19T06:00:37;20.80;99.90
1786;DHT22;890;48.158;11.540;2022-08-19T06:03:02;20.70;99.90
1786;DHT22;890;48.158;11.540;2022-08-19T06:05:31;20.70;99.90
1786;DHT22;890;48.158;11.540;2022-08-19T06:07:57;20.70;99.90
1786;DHT22;890;48.158;11.540;2022-08-19T06:10:25;20.80;99.90
1786;DHT22;890;48.158;11.540;2022-08-19T06:12:52;20.80;99.90
1786;DHT22;890;48.158;11.540;2022-08-19T06:15:18;20.60;99.90
1786;DHT22;890;48.158;11.540;2022-08-19T06:17:43;20.60;99.90
1786;DHT22;890;48.158;11.540;2022-08-19T06:20:12;20.60;99.90
1786;DHT22;890;48.158;11.540;2022-08-19T06:22:40;20.70;99.90
1786;DHT22;890;48.158;11.540;2022-08-19T06:25:06;20.80;99.90
1786;DHT22;890;48.158;11.540;2022-08-19T06:27:34;20.80;99.90
1786;DHT22;890;48.158;11.540;2022-08-19T06:30:01;20.80;99.90
1786;DHT22;890;48.158;11.540;2022-08-19T06:32:27;20.70;99.90
1786;DHT22;890;48.158;11.540;2022-08-19T06:34:52;20.70;99.90
1786;DHT22;890;48.158;11.540;2022-08-19T06:37:18;20.80;99.90
1786;DHT22;890;48.158;11.540;2022-08-19T06:39:44;20.80;99.90
1786;DHT22;890;48.158;11.540;2022-08-19T06:42:11;20.90;99.90
1786;DHT22;890;48.158;11.540;2022-08-19T06:44:42;20.90;99.90
1786;DHT22;890;48.158;11.540;2022-08-19T06:47:11;20.90;99.90
1786;DHT22;890;48.158;11.540;2022-08-19T06:49:36;20.90;99.90
1786;DHT22;890;48.158;11.540;2022-08-19T06:52:03;20.80;99.90
1786;DHT22;890;48.158;11.540;2022-08-19T06:54:29;20.80;99.90
1786;DHT22;890;48.158;11.540;2022-08-19T06:56:59;20.90;99.90
1786;DHT22;890;48.158;11.540;2022-08-19T06:59:28;20.90;99.90
1786;DHT22;890;48.158;11.540;2022-08-19T07:01:59;20.90;99.90
1786;DHT22;890;48.158;11.540;2022-08-19T07:04:28;20.80;99.90
1786;DHT22;890;48.158;11.540;2022-08-19T07:07:08;20.80;99.90
1786;DHT22;890;48.158;11.540;2022-08-19T07:09:35;20.80;99.90
1786;DHT22;890;48.158;11.540;2022-08-19T07:12:03;20.90;99.90
1786;DHT22;890;48.158;11.540;2022-08-19T07:14:29;20.90;99.90
1786;DHT22;890;48.158;11.540;2022-08-19T07:16:56;20.90;99.90
1786;DHT22;890;48.158;11.540;2022-08-19T07:19:24;21.00;99.90
1786;DHT22;890;48.158;11.540;2022-08-19T07:21:52;21.00;99.90
1786;DHT22;890;48.158;11.540;2022-08-19T07:24:19;21.10;99.90
1786;DHT22;890;48.158;11.540;2022-08-19T07:26:46;21.10;99.90
1786;DHT22;890;48.158;11.540;2022-08-19T07:29:12;21.10;99.90
1786;DHT22;890;48.158;11.540;2022-08-19T07:31:38;21.10;99.90
1786;DHT22;890;48.158;11.540;2022-08-19T07:34:06;21.20;99.90
1786;DHT22;890;48.158;11.540;2022-08-19T07:36:38;21.20;99.90
1786;DHT22;890;48.158;11.540;2022-08-19T07:39:09;21.10;99.90
1786;DHT22;890;48.158;11.540;2022-08-19T07:41:35;21.20;99.90
1786;DHT22;890;48.158;11.540;2022-08-19T07:44:04;21.40;99.90
1786;DHT22;890;48.158;11.540;2022-08-19T07:46:35;21.60;99.90
1786;DHT22;890;48.158;11.540;2022-08-19T07:49:01;21.60;99.90
1786;DHT22;890;48.158;11.540;2022-08-19T07:51:28;21.70;99.90
1786;DHT22;890;48.158;11.540;2022-08-19T07:53:54;21.70;99.90
1786;DHT22;890;48.158;11.540;2022-08-19T07:56:20;21.60;99.90
1786;DHT22;890;48.158;11.540;2022-08-19T07:58:47;21.50;99.90
1786;DHT22;890;48.158;11.540;2022-08-19T08:01:18;21.40;99.90
1786;DHT22;890;48.158;11.540;2022-08-19T08:03:44;21.30;99.90
1786;DHT22;890;48.158;11.540;2022-08-19T08:06:29;21.10;99.90
1786;DHT22;890;48.158;11.540;2022-08-19T08:09:15;21.10;99.90
1786;DHT22;890;48.158;11.540;2022-08-19T08:14:22;20.90;99.90
1786;DHT22;890;48.158;11.540;2022-08-19T08:16:48;21.00;99.90
1786;DHT22;890;48.158;11.540;2022-08-19T08:19:15;21.00;99.90
1786;DHT22;890;48.158;11.540;2022-08-19T08:21:41;21.10;99.90
1786;DHT22;890;48.158;11.540;2022-08-19T08:24:07;21.10;99.90
1786;DHT22;890;48.158;11.540;2022-08-19T08:26:33;21.10;99.90
1786;DHT22;890;48.158;11.540;2022-08-19T08:28:59;21.10;99.90
1786;DHT22;890;48.158;11.540;2022-08-19T08:31:24;21.10;99.90
1786;DHT22;890;48.158;11.540;2022-08-19T08:33:50;21.10;99.90
1786;DHT22;890;48.158;11.540;2022-08-19T08:36:16;21.10;99.90
1786;DHT22;890;48.158;11.540;2022-08-19T08:38:43;21.20;99.90
1786;DHT22;890;48.158;11.540;2022-08-19T08:44:52;21.10;99.90
1786;DHT22;890;48.158;11.540;2022-08-19T08:47:12;21.10;99.90
1786;DHT22;890;48.158;11.540;2022-08-19T08:49:52;21.00;99.90
1786;DHT22;890;48.158;11.540;2022-08-19T08:52:26;20.90;99.90
1786;DHT22;890;48.158;11.540;2022-08-19T08:54:59;20.90;99.90
1786;DHT22;890;48.158;11.540;2022-08-19T08:59:57;21.00;99.90
1786;DHT22;890;48.158;11.540;2022-08-19T09:02:25;20.90;99.90
1786;DHT22;890;48.158;11.540;2022-08-19T09:04:51;20.90;99.90
1786;DHT22;890;48.158;11.540;2022-08-19T09:15:39;20.60;99.90
1786;DHT22;890;48.158;11.540;2022-08-19T09:18:06;20.70;99.90
1786;DHT22;890;48.158;11.540;2022-08-19T09:20:33;20.70;99.90
1786;DHT22;890;48.158;11.540;2022-08-19T09:22:59;20.80;99.90
1786;DHT22;890;48.158;11.540;2022-08-19T09:25:25;20.80;99.90
1786;DHT22;890;48.158;11.540;2022-08-19T09:27:52;21.00;99.90
1786;DHT22;890;48.158;11.540;2022-08-19T09:30:24;21.10;99.90
1786;DHT22;890;48.158;11.540;2022-08-19T09:32:51;21.20;99.90
1786;DHT22;890;48.158;11.540;2022-08-19T09:35:22;21.30;99.90
1786;DHT22;890;48.158;11.540;2022-08-19T09:37:49;21.40;99.90
1786;DHT22;890;48.158;11.540;2022-08-19T09:40:15;21.50;99.90
1786;DHT22;890;48.158;11.540;2022-08-19T09:42:42;21.50;99.90
1786;DHT22;890;48.158;11.540;2022-08-19T09:45:09;21.60;99.90
1786;DHT22;890;48.158;11.540;2022-08-19T09:47:36;21.60;99.90
1786;DHT22;890;48.158;11.540;2022-08-19T09:50:05;21.60;99.90
1786;DHT22;890;48.158;11.540;2022-08-19T09:52:32;21.60;99.90
1786;DHT22;890;48.158;11.540;2022-08-19T09:54:58;21.50;99.90
1786;DHT22;890;48.158;11.540;2022-08-19T09:57:24;21.50;99.90
1786;DHT22;890;48.158;11.540;2022-08-19T09:59:49;21.40;99.90
1786;DHT22;890;48.158;11.540;2022-08-19T10:02:15;21.40;99.90
1786;DHT22;890;48.158;11.540;2022-08-19T10:04:40;21.30;99.90
1786;DHT22;890;48.158;11.540;2022-08-19T10:07:24;21.30;99.90
1786;DHT22;890;48.158;11.540;2022-08-19T10:09:50;21.30;99.90
1786;DHT22;890;48.158;11.540;2022-08-19T10:12:16;21.40;99.90
1786;DHT22;890;48.158;11.540;2022-08-19T10:14:41;21.60;99.90
1786;DHT22;890;48.158;11.540;2022-08-19T10:17:07;21.60;99.90
1786;DHT22;890;48.158;11.540;2022-08-19T10:19:33;21.50;99.90
1786;DHT22;890;48.158;11.540;2022-08-19T10:22:05;21.40;99.90
1786;DHT22;890;48.158;11.540;2022-08-19T10:24:32;21.40;99.90
1786;DHT22;890;48.158;11.540;2022-08-19T10:26:59;21.50;99.90
1786;DHT22;890;48.158;11.540;2022-08-19T10:29:26;21.80;99.90
1786;DHT22;890;48.158;11.540;2022-08-19T10:31:55;22.10;99.90
1786;DHT22;890;48.158;11.540;2022-08-19T10:34:22;22.70;99.90
1786;DHT22;890;48.158;11.540;2022-08-19T10:36:48;23.60;99.90
1786;DHT22;890;48.158;11.540;2022-08-19T10:39:13;24.40;99.90
1786;DHT22;890;48.158;11.540;2022-08-19T10:41:39;24.80;99.90
1786;DHT22;890;48.158;11.540;2022-08-19T10:44:07;25.50;99.90
1786;DHT22;890;48.158;11.540;2022-08-19T10:46:37;26.30;99.90
1786;DHT22;890;48.158;11.540;2022-08-19T10:49:04;26.10;96.70
1786;DHT22;890;48.158;11.540;2022-08-19T10:51:30;25.60;93.60
1786;DHT22;890;48.158;11.540;2022-08-19T10:54:14;25.30;94.90
1786;DHT22;890;48.158;11.540;2022-08-19T10:56:40;25.30;95.20
1786;DHT22;890;48.158;11.540;2022-08-19T10:59:28;25.50;95.70
1786;DHT22;890;48.158;11.540;2022-08-19T11:01:59;25.50;94.00
1786;DHT22;890;48.158;11.540;2022-08-19T11:04:25;25.90;94.70
1786;DHT22;890;48.158;11.540;2022-08-19T11:06:51;26.00;92.70
1786;DHT22;890;48.158;11.540;2022-08-19T11:09:20;25.80;90.60
1786;DHT22;890;48.158;11.540;2022-08-19T11:11:46;25.30;90.70
1786;DHT22;890;48.158;11.540;2022-08-19T11:14:15;25.00;90.50
1786;DHT22;890;48.158;11.540;2022-08-19T11:16:42;24.70;90.10
1786;DHT22;890;48.158;11.540;2022-08-19T11:19:09;24.30;90.30
1786;DHT22;890;48.158;11.540;2022-08-19T11:21:38;24.10;91.10
1786;DHT22;890;48.158;11.540;2022-08-19T11:24:07;23.90;91.20
1786;DHT22;890;48.158;11.540;2022-08-19T11:26:34;23.60;91.30
1786;DHT22;890;48.158;11.540;2022-08-19T11:29:00;23.40;91.40
1786;DHT22;890;48.158;11.540;2022-08-19T11:31:31;23.20;91.50
1786;DHT22;890;48.158;11.540;2022-08-19T11:33:58;23.20;91.70
1786;DHT22;890;48.158;11.540;2022-08-19T11:36:25;23.20;92.40
1786;DHT22;890;48.158;11.540;2022-08-19T11:38:52;23.30;92.50
1786;DHT22;890;48.158;11.540;2022-08-19T11:41:20;23.50;92.80
1786;DHT22;890;48.158;11.540;2022-08-19T11:43:46;23.90;92.60
1786;DHT22;890;48.158;11.540;2022-08-19T11:46:13;24.30;92.20
1786;DHT22;890;48.158;11.540;2022-08-19T11:48:40;24.80;92.00
1786;DHT22;890;48.158;11.540;2022-08-19T11:51:08;25.00;90.90
1786;DHT22;890;48.158;11.540;2022-08-19T11:53:35;24.90;90.00
1786;DHT22;890;48.158;11.540;2022-08-19T11:56:01;24.60;89.30
1786;DHT22;890;48.158;11.540;2022-08-19T11:58:27;24.60;89.40
1786;DHT22;890;48.158;11.540;2022-08-19T12:00:54;24.50;88.80
1786;DHT22;890;48.158;11.540;2022-08-19T12:03:20;24.20;89.50
1786;DHT22;890;48.158;11.540;2022-08-19T12:05:46;23.80;89.70
1786;DHT22;890;48.158;11.540;2022-08-19T12:08:12;23.40;90.10
1786;DHT22;890;48.158;11.540;2022-08-19T12:10:39;23.10;90.40
1786;DHT22;890;48.158;11.540;2022-08-19T12:13:05;23.00;90.90
1786;DHT22;890;48.158;11.540;2022-08-19T12:15:36;22.90;91.00
1786;DHT22;890;48.158;11.540;2022-08-19T12:18:02;22.80;91.30
1786;DHT22;890;48.158;11.540;2022-08-19T12:20:28;22.80;91.50
1786;DHT22;890;48.158;11.540;2022-08-19T12:22:53;22.80;91.50
1786;DHT22;890;48.158;11.540;2022-08-19T12:25:19;22.60;91.30
1786;DHT22;890;48.158;11.540;2022-08-19T12:27:46;22.70;91.70
1786;DHT22;890;48.158;11.540;2022-08-19T12:30:13;22.80;91.90
1786;DHT22;890;48.158;11.540;2022-08-19T12:32:38;22.80;91.90
1786;DHT22;890;48.158;11.540;2022-08-19T12:35:06;23.00;92.30
1786;DHT22;890;48.158;11.540;2022-08-19T12:37:33;23.10;92.00
1786;DHT22;890;48.158;11.540;2022-08-19T12:39:59;23.40;91.80
1786;DHT22;890;48.158;11.540;2022-08-19T12:42:24;23.60;91.40
1786;DHT22;890;48.158;11.540;2022-08-19T12:44:50;23.70;91.20
1786;DHT22;890;48.158;11.540;2022-08-19T12:47:18;23.80;91.10
1786;DHT22;890;48.158;11.540;2022-08-19T12:49:43;23.80;91.00
1786;DHT22;890;48.158;11.540;2022-08-19T12:52:10;24.00;90.70
1786;DHT22;890;48.158;11.540;2022-08-19T12:54:37;24.00;90.30
1786;DHT22;890;48.158;11.540;2022-08-19T12:57:07;24.10;90.20
1786;DHT22;890;48.158;11.540;2022-08-19T12:59:34;24.20;88.90
1786;DHT22;890;48.158;11.540;2022-08-19T13:02:02;24.30;88.00
1786;DHT22;890;48.158;11.540;2022-08-19T13:04:29;24.20;87.00
1786;DHT22;890;48.158;11.540;2022-08-19T13:06:54;24.00;87.70
1786;DHT22;890;48.158;11.540;2022-08-19T13:09:20;23.90;88.20
1786;DHT22;890;48.158;11.540;2022-08-19T13:11:45;23.80;88.50
1786;DHT22;890;48.158;11.540;2022-08-19T13:14:11;23.90;88.30
1786;DHT22;890;48.158;11.540;2022-08-19T13:16:37;23.80;87.60
1786;DHT22;890;48.158;11.540;2022-08-19T13:19:04;23.80;87.30
1786;DHT22;890;48.158;11.540;2022-08-19T13:21:31;23.80;86.90
1786;DHT22;890;48.158;11.540;2022-08-19T13:23:57;23.90;86.50
1786;DHT22;890;48.158;11.540;2022-08-19T13:26:23;24.10;86.40
1786;DHT22;890;48.158;11.540;2022-08-19T13:28:48;24.20;85.30
1786;DHT22;890;48.158;11.540;2022-08-19T13:31:34;24.20;85.10
1786;DHT22;890;48.158;11.540;2022-08-19T13:34:31;24.00;84.60
1786;DHT22;890;48.158;11.540;2022-08-19T13:36:58;23.80;85.40
1786;DHT22;890;48.158;11.540;2022-08-19T13:39:23;23.70;86.60
1786;DHT22;890;48.158;11.540;2022-08-19T13:41:49;23.70;87.10
1786;DHT22;890;48.158;11.540;2022-08-19T13:44:17;23.70;87.50
1786;DHT22;890;48.158;11.540;2022-08-19T13:46:49;23.70;87.90
1786;DHT22;890;48.158;11.540;2022-08-19T13:49:18;23.70;87.90
1786;DHT22;890;48.158;11.540;2022-08-19T13:51:45;23.80;87.30
1786;DHT22;890;48.158;11.540;2022-08-19T13:54:11;23.80;87.30
1786;DHT22;890;48.158;11.540;2022-08-19T13:56:44;24.00;87.00
1786;DHT22;890;48.158;11.540;2022-08-19T13:59:10;23.90;86.60
1786;DHT22;890;48.158;11.540;2022-08-19T14:01:37;23.70;86.30
1786;DHT22;890;48.158;11.540;2022-08-19T14:04:04;23.70;86.40
1786;DHT22;890;48.158;11.540;2022-08-19T14:06:30;23.60;86.40
1786;DHT22;890;48.158;11.540;2022-08-19T14:08:56;23.70;86.30
1786;DHT22;890;48.158;11.540;2022-08-19T14:11:21;23.70;86.60
1786;DHT22;890;48.158;11.540;2022-08-19T14:13:48;23.60;87.10
1786;DHT22;890;48.158;11.540;2022-08-19T14:16:14;23.70;86.80
1786;DHT22;890;48.158;11.540;2022-08-19T14:18:41;23.80;85.90
1786;DHT22;890;48.158;11.540;2022-08-19T14:21:08;23.90;85.80
1786;DHT22;890;48.158;11.540;2022-08-19T14:23:38;24.10;84.60
1786;DHT22;890;48.158;11.540;2022-08-19T14:26:15;23.80;85.00
1786;DHT22;890;48.158;11.540;2022-08-19T14:28:42;23.60;85.60
1786;DHT22;890;48.158;11.540;2022-08-19T14:31:10;23.60;86.20
1786;DHT22;890;48.158;11.540;2022-08-19T14:33:38;23.50;86.40
1786;DHT22;890;48.158;11.540;2022-08-19T14:36:04;23.40;86.50
1786;DHT22;890;48.158;11.540;2022-08-19T14:38:30;23.40;87.00
1786;DHT22;890;48.158;11.540;2022-08-19T14:41:16;23.50;86.20
1786;DHT22;890;48.158;11.540;2022-08-19T14:43:47;23.30;85.90
1786;DHT22;890;48.158;11.540;2022-08-19T14:46:21;23.20;86.50
1786;DHT22;890;48.158;11.540;2022-08-19T14:48:48;23.00;87.00
1786;DHT22;890;48.158;11.540;2022-08-19T14:51:14;23.00;87.40
1786;DHT22;890;48.158;11.540;2022-08-19T14:53:41;22.90;87.60
1786;DHT22;890;48.158;11.540;2022-08-19T14:56:08;22.80;87.60
1786;DHT22;890;48.158;11.540;2022-08-19T14:58:34;22.70;88.30
1786;DHT22;890;48.158;11.540;2022-08-19T15:01:00;22.90;88.80
1786;DHT22;890;48.158;11.540;2022-08-19T15:03:27;22.90;88.70
1786;DHT22;890;48.158;11.540;2022-08-19T15:05:53;22.70;88.50
1786;DHT22;890;48.158;11.540;2022-08-19T15:08:19;22.60;88.80
1786;DHT22;890;48.158;11.540;2022-08-19T15:10:45;22.60;89.20
1786;DHT22;890;48.158;11.540;2022-08-19T15:13:13;22.50;89.30
1786;DHT22;890;48.158;11.540;2022-08-19T15:15:38;22.50;89.50
1786;DHT22;890;48.158;11.540;2022-08-19T15:18:04;22.50;90.00
1786;DHT22;890;48.158;11.540;2022-08-19T15:20:30;22.60;90.00
1786;DHT22;890;48.158;11.540;2022-08-19T15:22:56;22.50;90.10
1786;DHT22;890;48.158;11.540;2022-08-19T15:25:23;22.40;90.20
1786;DHT22;890;48.158;11.540;2022-08-19T15:27:49;22.30;90.20
1786;DHT22;890;48.158;11.540;2022-08-19T15:30:24;22.20;90.50
1786;DHT22;890;48.158;11.540;2022-08-19T15:32:49;21.40;93.00
1786;DHT22;890;48.158;11.540;2022-08-19T15:35:18;20.80;95.30
1786;DHT22;890;48.158;11.540;2022-08-19T15:37:44;20.50;97.30
1786;DHT22;890;48.158;11.540;2022-08-19T15:40:11;20.30;98.60
1786;DHT22;890;48.158;11.540;2022-08-19T15:42:37;20.20;99.90
1786;DHT22;890;48.158;11.540;2022-08-19T15:45:07;20.20;99.90
1786;DHT22;890;48.158;11.540;2022-08-19T15:47:34;20.10;99.90
1786;DHT22;890;48.158;11.540;2022-08-19T15:50:03;20.30;99.90
1786;DHT22;890;48.158;11.540;2022-08-19T15:52:29;20.50;99.90
1786;DHT22;890;48.158;11.540;2022-08-19T15:54:54;20.60;99.90
1786;DHT22;890;48.158;11.540;2022-08-19T15:57:20;20.70;99.90
1786;DHT22;890;48.158;11.540;2022-08-19T15:59:46;20.80;99.90
1786;DHT22;890;48.158;11.540;2022-08-19T16:02:31;21.00;99.90
1786;DHT22;890;48.158;11.540;2022-08-19T16:05:19;21.00;99.90
1786;DHT22;890;48.158;11.540;2022-08-19T16:08:04;20.90;99.90
1786;DHT22;890;48.158;11.540;2022-08-19T16:10:30;21.10;99.90
1786;DHT22;890;48.158;11.540;2022-08-19T16:12:56;21.20;99.90
1786;DHT22;890;48.158;11.540;2022-08-19T16:15:24;21.30;99.90
1786;DHT22;890;48.158;11.540;2022-08-19T16:17:52;21.40;99.90
1786;DHT22;890;48.158;11.540;2022-08-19T16:20:19;21.40;99.90
1786;DHT22;890;48.158;11.540;2022-08-19T16:22:47;21.30;99.90